KWAL/WAL METAR and TAF weather

Enter ICAO airport designator
Station Type Date Time Source
KWAL METAR 2022/12/05 12:54 UTC NOAA

KWAL 051254Z 33003KT 10SM BKN250 M02/M04 A3028 RMK AO2 SLP250 T10221039


Station Type Date Time Source
KWAL Decoded METAR 2022/12/05 12:54 UTC NOAA

WALLOPS FLIGHT FAC AIRPORT , VA, United States (KWAL) 37-56N 075-28W 14M
Dec 05, 2022 - 07:54 AM EST / 2022.12.05 1254 UTC
Wind: from the NNW (330 degrees) at 3 MPH (3 KT):0
Visibility: 10 mile(s):0
Sky conditions: mostly cloudy
Temperature: 28.0 F (-2.2 C)
Dew Point: 25.0 F (-3.9 C)
Relative Humidity: 88%
Pressure (altimeter): 30.28 in. Hg (1025 hPa)
ob: KWAL 051254Z 33003KT 10SM BKN250 M02/M04 A3028 RMK AO2 SLP250 T10221039
cycle: 13

Station Type Date Time Source
KWAL TAF UTC NOAA

Error!

Example: see airport list